Time;durP1;ratioP1;P1;durP2;ratioP2;P2;SDS_P1;SDS_P2;PMS_P1;PMS_P2;Temp;Humidity;BMP_temperature;BMP_pressure;BME280_temperature;BME280_humidity;BME280_pressure;Samples;Min_cycle;Max_cycle;Signal;HPM_P1;HPM_P2
2022/01/18 00:06:30;;;;;;;24.03;12.73;;;7.20;99.90;;;;;;20842432;28;20215;-67
2022/01/18 00:16:49;;;;;;;20.83;12.53;;;7.20;99.90;;;;;;20837037;28;20233;-71
2022/01/18 00:26:51;;;;;;;22.33;11.97;;;7.20;99.90;;;;;;20836250;28;20211;-71
2022/01/18 00:36:59;;;;;;;18.73;11.07;;;7.30;99.90;;;;;;20834074;28;20238;-65
2022/01/18 00:47:01;;;;;;;14.57;7.63;;;7.40;99.90;;;;;;20835008;28;20208;-62
2022/01/18 00:57:05;;;;;;;15.67;6.50;;;7.30;99.90;;;;;;20833840;28;20242;-64
2022/01/18 01:07:07;;;;;;;17.43;8.13;;;7.20;99.90;;;;;;20833575;28;20263;-60
2022/01/18 01:48:11;;;;;;;12.57;7.13;;;7.20;99.90;;;;;;20830863;28;20260;-62
2022/01/18 01:58:13;;;;;;;16.37;7.33;;;7.20;99.90;;;;;;20829764;28;20238;-61
2022/01/18 02:08:16;;;;;;;16.47;7.47;;;7.20;99.90;;;;;;20829270;28;20671;-62
2022/01/18 02:28:41;;;;;;;12.30;7.20;;;7.30;99.90;;;;;;20845985;28;20214;-68
2022/01/18 02:38:43;;;;;;;16.50;7.93;;;7.30;99.90;;;;;;20844398;28;20267;-68
2022/01/18 02:48:44;;;;;;;14.80;8.37;;;7.20;99.90;;;;;;20844155;28;20609;-65
2022/01/18 02:58:47;;;;;;;14.47;9.00;;;7.20;99.90;;;;;;20842845;28;20246;-62
2022/01/18 03:08:50;;;;;;;17.53;10.03;;;;;;;;;;20842106;28;20214;-62
2022/01/18 03:18:51;;;;;;;17.40;10.33;;;7.00;99.90;;;;;;20845278;28;20624;-61
2022/01/18 03:28:53;;;;;;;16.83;9.90;;;7.00;99.90;;;;;;20920285;28;20205;-62
2022/01/18 03:38:55;;;;;;;16.23;9.23;;;7.00;99.90;;;;;;20923233;28;20294;-67
2022/01/18 03:48:58;;;;;;;17.20;10.00;;;7.00;99.90;;;;;;20932098;28;20263;-67
2022/01/18 03:58:59;;;;;;;15.00;8.80;;;6.90;99.90;;;;;;20924592;28;20245;-63
2022/01/18 04:09:01;;;;;;;13.70;8.33;;;6.90;99.90;;;;;;20920098;28;20734;-62
2022/01/18 04:19:33;;;;;;;19.00;8.80;;;6.90;99.90;;;;;;20920434;28;20288;-62
2022/01/18 04:29:25;;;;;;;16.57;8.67;;;6.90;99.90;;;;;;20927607;28;20659;-63
2022/01/18 04:39:28;;;;;;;16.00;8.57;;;7.00;99.90;;;;;;20918417;28;20582;-62
2022/01/18 04:49:30;;;;;;;17.27;8.70;;;6.90;99.90;;;;;;20917111;28;20201;-60
2022/01/18 04:59:31;;;;;;;15.83;8.43;;;6.90;99.90;;;;;;20915983;28;20652;-62
2022/01/18 05:09:33;;;;;;;16.23;8.67;;;7.00;99.90;;;;;;20915747;28;20209;-61
2022/01/18 05:19:43;;;;;;;15.07;8.70;;;7.00;99.90;;;;;;20904558;28;20234;-62
2022/01/18 05:29:44;;;;;;;19.73;8.77;;;7.00;99.90;;;;;;20829512;28;20674;-61
2022/01/18 05:39:47;;;;;;;17.33;8.83;;;7.00;99.90;;;;;;20830831;28;20289;-67
2022/01/18 05:49:49;;;;;;;25.30;8.80;;;7.00;99.90;;;;;;20830366;28;20208;-67
2022/01/18 05:59:52;;;;;;;23.73;9.57;;;7.00;99.90;;;;;;20826005;28;20479;-63
2022/01/18 06:09:56;;;;;;;18.90;9.43;;;7.00;99.90;;;;;;20829069;28;20260;-61
2022/01/18 06:19:57;;;;;;;20.60;5.57;;;7.10;99.90;;;;;;20829272;28;20281;-63
2022/01/18 06:29:59;;;;;;;16.63;5.97;;;7.00;99.90;;;;;;20830535;28;20210;-62
2022/01/18 06:40:03;;;;;;;24.43;7.63;;;7.10;99.90;;;;;;20828237;28;20242;-60
2022/01/18 06:50:07;;;;;;;19.50;5.50;;;7.10;99.90;;;;;;20827297;28;20580;-60
2022/01/18 07:00:09;;;;;;;14.87;4.77;;;7.00;99.80;;;;;;20877197;28;20278;-59
2022/01/18 07:10:11;;;;;;;24.33;4.57;;;7.10;99.80;;;;;;20911181;28;20738;-63
2022/01/18 07:20:13;;;;;;;16.57;5.87;;;7.10;99.70;;;;;;20907766;28;20514;-63
2022/01/18 07:30:15;;;;;;;10.17;4.50;;;7.20;99.20;;;;;;20836793;28;20215;-60
2022/01/18 07:40:17;;;;;;;25.37;7.53;;;7.10;99.10;;;;;;20838211;28;20923;-62
2022/01/18 07:50:19;;;;;;;20.20;4.70;;;7.30;99.40;;;;;;20919230;28;20286;-73
2022/01/18 08:00:21;;;;;;;17.47;4.30;;;7.10;99.00;;;;;;20918033;28;20300;-66
2022/01/18 08:10:29;;;;;;;18.60;5.20;;;7.10;98.90;;;;;;20918237;28;20663;-65
2022/01/18 08:20:31;;;;;;;14.90;5.03;;;7.10;99.20;;;;;;20917267;28;20654;-63
2022/01/18 08:30:33;;;;;;;7.93;3.10;;;7.20;98.90;;;;;;20915679;28;20213;-65
2022/01/18 08:40:35;;;;;;;8.33;2.30;;;7.30;98.80;;;;;;20914659;28;20240;-60
2022/01/18 08:50:37;;;;;;;11.80;2.90;;;7.40;98.20;;;;;;20912964;28;20218;-63
2022/01/18 09:00:42;;;;;;;12.20;2.67;;;7.30;97.50;;;;;;20913677;28;20353;-65
2022/01/18 09:10:46;;;;;;;5.77;2.97;;;7.30;97.30;;;;;;20913293;28;20360;-67
2022/01/18 09:20:48;;;;;;;5.93;3.20;;;7.40;97.30;;;;;;20906752;28;20230;-66
2022/01/18 09:30:50;;;;;;;7.13;2.40;;;7.60;96.90;;;;;;20907770;28;20616;-63
2022/01/18 09:40:51;;;;;;;5.47;1.80;;;7.70;96.70;;;;;;20912319;28;20296;-65
2022/01/18 09:50:55;;;;;;;6.63;1.90;;;8.00;96.40;;;;;;20910897;28;20280;-64
2022/01/18 10:00:58;;;;;;;5.70;2.10;;;8.20;95.80;;;;;;20909473;28;20251;-61
2022/01/18 10:11:07;;;;;;;4.40;1.60;;;8.30;96.10;;;;;;20910054;28;20222;-63
2022/01/18 10:21:10;;;;;;;6.07;1.97;;;8.50;94.90;;;;;;20909604;28;20334;-64
2022/01/18 10:31:33;;;;;;;2.33;1.40;;;8.50;94.80;;;;;;20909976;28;20213;-62
2022/01/18 10:41:35;;;;;;;2.70;1.30;;;8.60;94.40;;;;;;20899684;28;20228;-63
2022/01/18 10:51:42;;;;;;;1.60;0.80;;;8.60;93.90;;;;;;20842010;28;20231;-63
2022/01/18 11:01:44;;;;;;;2.63;1.30;;;8.60;94.00;;;;;;20914657;28;20243;-65
2022/01/18 11:11:48;;;;;;;4.33;1.63;;;8.70;93.60;;;;;;20921864;28;20202;-64
2022/01/18 11:21:52;;;;;;;1.17;1.07;;;8.90;93.20;;;;;;20911665;28;20232;-63
2022/01/18 11:31:55;;;;;;;3.87;1.67;;;9.00;93.50;;;;;;20911039;28;20200;-64
2022/01/18 11:42:12;;;;;;;2.67;1.10;;;8.90;92.60;;;;;;20912823;28;20234;-65
2022/01/18 11:52:34;;;;;;;5.67;1.50;;;8.80;92.20;;;;;;20918286;28;20233;-60
2022/01/18 12:02:41;;;;;;;2.90;1.50;;;8.80;92.60;;;;;;20917358;28;20646;-63
2022/01/18 12:12:46;;;;;;;8.80;5.20;;;9.40;92.00;;;;;;20897726;28;20657;-61
2022/01/18 12:23:00;;;;;;;3.70;1.20;;;9.70;91.90;;;;;;20916038;28;20224;-60
2022/01/18 12:33:18;;;;;;;1.40;0.70;;;9.50;91.10;;;;;;20917120;28;20678;-62
2022/01/18 12:53:41;;;;;;;2.07;0.90;;;9.30;90.40;;;;;;20914088;28;20205;-63
2022/01/18 13:03:48;;;;;;;2.77;1.20;;;9.30;90.60;;;;;;20912664;28;20254;-64
2022/01/18 13:13:58;;;;;;;3.37;1.20;;;9.10;90.30;;;;;;20909130;28;20213;-66
2022/01/18 13:34:16;;;;;;;1.63;0.90;;;9.10;90.60;;;;;;20910922;28;20228;-71
2022/01/18 13:44:18;;;;;;;0.87;0.80;;;9.10;90.90;;;;;;20911502;28;20289;-64
2022/01/18 13:54:20;;;;;;;4.70;1.30;;;9.10;90.40;;;;;;20910541;28;20210;-69
2022/01/18 14:04:24;;;;;;;1.13;0.87;;;9.20;90.40;;;;;;20910163;28;20242;-68
2022/01/18 14:14:30;;;;;;;2.70;0.80;;;9.20;89.30;;;;;;20911822;28;20215;-67
2022/01/18 14:24:38;;;;;;;2.27;1.40;;;9.20;89.40;;;;;;20926424;28;20289;-70
2022/01/18 14:34:42;;;;;;;0.97;0.70;;;9.20;90.00;;;;;;20925401;28;20215;-71
2022/01/18 14:54:48;;;;;;;4.07;0.90;;;9.00;89.10;;;;;;20924482;28;20634;-63
2022/01/18 15:04:50;;;;;;;2.50;1.00;;;9.00;89.20;;;;;;20923205;28;20288;-63
2022/01/18 15:14:51;;;;;;;1.10;1.00;;;9.00;89.40;;;;;;20891437;28;20271;-63
2022/01/18 15:24:54;;;;;;;1.23;0.87;;;8.90;89.40;;;;;;20844081;28;20228;-62
2022/01/18 15:34:56;;;;;;;3.87;1.50;;;8.70;89.50;;;;;;20839869;28;20204;-61
2022/01/18 15:44:57;;;;;;;3.23;1.50;;;8.80;90.20;;;;;;20839231;28;20647;-63
2022/01/18 15:55:00;;;;;;;2.73;1.70;;;8.70;90.00;;;;;;20838075;28;20208;-62
2022/01/18 16:05:02;;;;;;;2.77;1.80;;;8.60;90.20;;;;;;20837971;28;20232;-65
2022/01/18 16:15:04;;;;;;;4.10;2.00;;;8.60;90.20;;;;;;20837444;28;20304;-64
2022/01/18 16:25:07;;;;;;;1.30;1.00;;;8.60;90.20;;;;;;20835543;28;20271;-62
2022/01/18 16:35:10;;;;;;;1.53;1.00;;;8.60;90.20;;;;;;20835306;28;20234;-64
2022/01/18 16:45:14;;;;;;;2.67;1.30;;;8.60;90.40;;;;;;20833606;28;20232;-64
2022/01/18 16:55:16;;;;;;;4.20;1.60;;;8.50;89.80;;;;;;20833118;28;20250;-63
2022/01/18 17:05:18;;;;;;;3.07;1.33;;;8.50;89.80;;;;;;20833732;28;20236;-68
2022/01/18 17:15:20;;;;;;;3.20;2.00;;;8.60;89.70;;;;;;20885995;28;20216;-63
2022/01/18 17:25:22;;;;;;;4.97;1.80;;;8.50;89.80;;;;;;20829582;28;20235;-64
2022/01/18 17:35:23;;;;;;;7.43;3.03;;;8.50;89.80;;;;;;20840828;28;20218;-69
2022/01/18 17:45:27;;;;;;;4.70;2.67;;;8.50;90.20;;;;;;20830946;28;20236;-65
2022/01/18 17:55:29;;;;;;;4.17;3.07;;;8.50;90.00;;;;;;20829135;28;20244;-71
2022/01/18 18:05:32;;;;;;;14.43;3.60;;;8.50;90.20;;;;;;20829691;28;20591;-71
2022/01/18 18:15:34;;;;;;;3.93;3.00;;;8.50;90.10;;;;;;20829400;28;20237;-75
2022/01/18 18:25:37;;;;;;;4.13;2.57;;;8.50;90.50;;;;;;20829614;28;20738;-69
2022/01/18 18:35:39;;;;;;;8.77;2.90;;;8.50;90.20;;;;;;20826062;28;20211;-71
2022/01/18 18:45:43;;;;;;;6.60;3.03;;;8.50;90.30;;;;;;20824337;28;20244;-72
2022/01/18 18:55:46;;;;;;;5.67;3.33;;;8.50;90.20;;;;;;20826311;28;20718;-67
2022/01/18 19:05:53;;;;;;;3.73;2.40;;;8.50;90.50;;;;;;20838410;28;20236;-71
2022/01/18 19:15:55;;;;;;;2.87;2.37;;;8.50;90.30;;;;;;20865884;28;20214;-66
2022/01/18 19:25:58;;;;;;;4.43;3.20;;;8.50;89.70;;;;;;20921527;28;20245;-64
2022/01/18 19:36:00;;;;;;;5.57;2.00;;;8.50;89.50;;;;;;20883781;28;20824;-62
2022/01/18 19:46:03;;;;;;;2.03;1.70;;;8.50;89.50;;;;;;20913565;28;20730;-68
2022/01/18 19:56:05;;;;;;;3.13;2.00;;;8.40;89.20;;;;;;20842403;28;20231;-63
2022/01/18 20:06:07;;;;;;;1.73;1.50;;;8.40;89.10;;;;;;20841978;28;20571;-64
2022/01/18 20:16:09;;;;;;;2.90;1.77;;;8.50;89.70;;;;;;20851501;28;20222;-65
2022/01/18 20:26:16;;;;;;;3.57;2.03;;;8.40;88.90;;;;;;20901010;28;20230;-64
2022/01/18 20:36:18;;;;;;;4.50;3.00;;;8.40;89.00;;;;;;20924485;28;20203;-65
2022/01/18 20:46:20;;;;;;;3.67;2.50;;;8.40;89.00;;;;;;20919555;28;20238;-63
2022/01/18 20:56:22;;;;;;;3.83;2.83;;;8.40;89.10;;;;;;20915459;28;20420;-66
2022/01/18 21:06:24;;;;;;;3.47;3.00;;;8.40;89.50;;;;;;20909640;28;20471;-62
2022/01/18 21:16:26;;;;;;;5.50;4.40;;;9.00;89.00;;;;;;20912952;28;20257;-63
2022/01/18 21:26:28;;;;;;;4.73;3.50;;;8.40;88.90;;;;;;20897468;28;20235;-63
2022/01/18 21:36:29;;;;;;;2.90;2.30;;;8.30;88.70;;;;;;20918449;28;20211;-66
2022/01/18 21:46:32;;;;;;;3.73;2.23;;;;;;;;;;20924198;28;20241;-62
2022/01/18 21:56:35;;;;;;;2.83;1.90;;;8.30;88.30;;;;;;20915652;28;20235;-61
2022/01/18 22:06:37;;;;;;;6.20;2.50;;;8.30;88.70;;;;;;20910153;28;20572;-61
2022/01/18 22:16:39;;;;;;;3.00;2.23;;;8.30;88.70;;;;;;20910963;28;20573;-64
2022/01/18 22:26:41;;;;;;;2.57;2.20;;;8.20;87.90;;;;;;20911996;28;20270;-63
2022/01/18 22:36:42;;;;;;;2.97;2.20;;;8.10;87.70;;;;;;20918582;28;20267;-64
2022/01/18 22:46:44;;;;;;;2.60;2.40;;;8.10;87.80;;;;;;20927362;28;20288;-62
2022/01/18 22:56:46;;;;;;;4.60;2.10;;;8.10;88.50;;;;;;20926284;28;20317;-63
2022/01/18 23:06:48;;;;;;;3.40;2.37;;;7.90;87.80;;;;;;20925773;28;20239;-62
2022/01/18 23:16:50;;;;;;;3.13;2.43;;;8.00;88.00;;;;;;20906427;28;20609;-66
2022/01/18 23:26:52;;;;;;;3.07;2.40;;;7.90;88.00;;;;;;20868467;28;20242;-62
2022/01/18 23:36:54;;;;;;;6.00;2.57;;;7.90;87.70;;;;;;20877173;28;20246;-65
2022/01/18 23:46:55;;;;;;;4.83;2.77;;;7.90;87.80;;;;;;20921672;28;20295;-64
2022/01/18 23:56:57;;;;;;;4.00;3.13;;;7.70;87.70;;;;;;20920958;28;20237;-63
